Time;durP1;ratioP1;P1;durP2;ratioP2;P2;SDS_P1;SDS_P2;PMS_P1;PMS_P2;Temp;Humidity;BMP_temperature;BMP_pressure;BME280_temperature;BME280_humidity;BME280_pressure;Samples;Min_cycle;Max_cycle;Signal;HPM_P1;HPM_P2
2023/08/24 00:01:41;;;;;;;8.15;3.88;;;18.80;99.90;;;;;;5063139;28;20215;-84
2023/08/24 00:04:09;;;;;;;7.35;3.63;;;18.70;99.90;;;;;;5058463;28;20240;-82
2023/08/24 00:06:36;;;;;;;6.80;3.45;;;18.70;99.90;;;;;;5056132;28;20228;-82
2023/08/24 00:09:04;;;;;;;6.82;2.97;;;18.70;99.90;;;;;;5057956;28;20733;-81
2023/08/24 00:11:31;;;;;;;6.45;3.30;;;18.60;99.90;;;;;;5058715;28;20810;-81
2023/08/24 00:13:59;;;;;;;5.35;2.70;;;18.60;99.90;;;;;;5057100;28;20242;-83
2023/08/24 00:16:26;;;;;;;5.55;3.20;;;18.60;99.90;;;;;;5049436;28;20239;-83
2023/08/24 00:18:52;;;;;;;7.78;3.20;;;18.50;99.90;;;;;;5056937;28;20250;-82
2023/08/24 00:21:22;;;;;;;7.35;3.38;;;18.50;99.90;;;;;;5053864;28;20229;-82
2023/08/24 00:23:49;;;;;;;5.40;2.90;;;18.50;99.90;;;;;;5069999;28;20220;-81
2023/08/24 00:26:17;;;;;;;3.70;2.63;;;18.40;99.90;;;;;;5057512;28;20230;-83
2023/08/24 00:28:44;;;;;;;6.78;2.88;;;18.40;99.90;;;;;;5061451;28;20219;-82
2023/08/24 00:31:12;;;;;;;4.88;2.80;;;18.40;99.90;;;;;;5058320;28;20223;-82
2023/08/24 00:33:39;;;;;;;4.68;3.13;;;18.40;99.90;;;;;;5062287;28;20241;-82
2023/08/24 00:36:07;;;;;;;5.50;2.80;;;18.40;99.90;;;;;;5058926;28;20226;-81
2023/08/24 00:38:34;;;;;;;5.20;2.80;;;18.40;99.90;;;;;;5063276;28;20764;-80
2023/08/24 00:41:01;;;;;;;5.55;2.42;;;18.40;99.90;;;;;;5062625;28;20233;-80
2023/08/24 00:43:28;;;;;;;4.55;2.38;;;18.30;99.90;;;;;;5059212;28;20285;-82
2023/08/24 00:45:57;;;;;;;3.30;2.60;;;18.40;99.90;;;;;;5069392;28;20310;-81
2023/08/24 00:48:28;;;;;;;5.20;2.72;;;18.30;99.90;;;;;;5064413;28;20231;-80
2023/08/24 00:50:55;;;;;;;4.60;2.40;;;18.30;99.90;;;;;;5054914;28;20796;-80
2023/08/24 00:53:25;;;;;;;4.88;2.63;;;18.30;99.90;;;;;;5055634;28;20223;-80
2023/08/24 00:55:53;;;;;;;5.63;2.70;;;18.40;99.90;;;;;;5066363;28;20822;-80
2023/08/24 00:58:20;;;;;;;3.67;2.33;;;18.40;99.90;;;;;;5066025;28;20227;-80
2023/08/24 01:00:48;;;;;;;3.67;2.40;;;18.40;99.90;;;;;;5057234;28;20285;-80
2023/08/24 01:03:15;;;;;;;4.00;2.20;;;18.30;99.90;;;;;;5060361;28;20296;-80
2023/08/24 01:05:45;;;;;;;5.28;2.40;;;18.30;99.90;;;;;;5054919;28;20713;-81
2023/08/24 01:08:12;;;;;;;3.83;2.28;;;18.30;99.90;;;;;;5062367;28;20593;-82
2023/08/24 01:10:45;;;;;;;3.72;2.40;;;18.30;99.90;;;;;;5064579;28;20258;-80
2023/08/24 01:13:16;;;;;;;7.53;2.65;;;18.30;99.90;;;;;;5056074;28;20219;-80
2023/08/24 01:15:52;;;;;;;2.50;2.10;;;18.30;99.90;;;;;;5068569;28;20317;-80
2023/08/24 01:18:21;;;;;;;6.18;2.55;;;18.30;99.90;;;;;;5064419;28;20232;-80
2023/08/24 01:20:51;;;;;;;3.63;2.25;;;18.30;99.90;;;;;;5066220;28;20288;-80
2023/08/24 01:23:32;;;;;;;2.90;2.60;;;18.20;99.90;;;;;;5060749;28;20236;-80
2023/08/24 01:26:09;;;;;;;5.68;2.70;;;18.30;99.90;;;;;;5058116;28;20223;-81
2023/08/24 01:28:36;;;;;;;4.22;2.60;;;18.20;99.90;;;;;;5059621;28;20221;-81
2023/08/24 01:31:05;;;;;;;6.38;2.80;;;18.20;99.90;;;;;;5057727;28;20287;-82
2023/08/24 01:33:31;;;;;;;5.72;3.00;;;18.20;99.90;;;;;;5067097;28;20243;-80
2023/08/24 01:35:58;;;;;;;4.68;2.50;;;18.10;99.90;;;;;;5061078;28;20215;-81
2023/08/24 01:38:27;;;;;;;5.32;2.90;;;18.10;99.90;;;;;;5067707;28;20234;-81
2023/08/24 01:41:00;;;;;;;4.80;2.75;;;18.00;99.90;;;;;;5065827;28;20307;-80
2023/08/24 01:43:33;;;;;;;6.70;2.85;;;18.00;99.90;;;;;;5060658;28;20219;-81
2023/08/24 01:46:02;;;;;;;4.35;3.00;;;17.90;99.90;;;;;;5061504;28;20917;-82
2023/08/24 01:48:30;;;;;;;6.03;2.42;;;17.90;99.90;;;;;;5055560;28;20694;-82
2023/08/24 01:50:58;;;;;;;5.40;2.78;;;17.80;99.90;;;;;;5061958;28;20219;-82
2023/08/24 01:53:28;;;;;;;5.10;2.78;;;17.80;99.90;;;;;;5060905;28;20687;-82
2023/08/24 01:55:56;;;;;;;4.90;2.78;;;17.70;99.90;;;;;;5061778;28;20990;-82
2023/08/24 01:58:23;;;;;;;5.97;2.55;;;17.70;99.90;;;;;;5059929;28;20250;-82
2023/08/24 02:00:51;;;;;;;3.72;2.53;;;17.60;99.90;;;;;;5068402;28;20776;-82
2023/08/24 02:03:18;;;;;;;5.30;2.45;;;17.60;99.90;;;;;;5047072;28;20315;-81
2023/08/24 02:05:45;;;;;;;5.15;2.42;;;17.50;99.90;;;;;;5058105;28;20220;-82
2023/08/24 02:08:11;;;;;;;6.28;2.42;;;17.50;99.90;;;;;;5054679;28;20311;-82
2023/08/24 02:10:38;;;;;;;5.28;2.67;;;17.50;99.90;;;;;;5062067;28;20226;-82
2023/08/24 02:13:05;;;;;;;6.10;2.63;;;17.50;99.90;;;;;;5061640;28;20220;-81
2023/08/24 02:15:31;;;;;;;5.88;2.30;;;17.40;99.90;;;;;;5055917;28;20838;-82
2023/08/24 02:18:00;;;;;;;4.30;3.00;;;17.40;99.90;;;;;;5056704;28;20948;-82
2023/08/24 02:20:27;;;;;;;4.95;2.58;;;17.40;99.90;;;;;;5063885;28;20231;-81
2023/08/24 02:22:53;;;;;;;3.90;2.55;;;17.30;99.90;;;;;;5061378;28;20346;-81
2023/08/24 02:25:20;;;;;;;2.80;2.35;;;17.30;99.90;;;;;;5063001;28;20255;-82
2023/08/24 02:27:48;;;;;;;4.18;2.40;;;17.20;99.90;;;;;;5054298;28;20223;-81
2023/08/24 02:30:15;;;;;;;4.63;2.35;;;17.20;99.90;;;;;;5073039;28;20882;-82
2023/08/24 02:32:42;;;;;;;4.50;2.70;;;17.20;99.90;;;;;;5063910;28;20280;-81
2023/08/24 02:35:11;;;;;;;5.57;2.55;;;17.10;99.90;;;;;;5063613;28;20297;-83
2023/08/24 02:37:38;;;;;;;3.75;2.90;;;17.10;99.90;;;;;;5064148;28;20232;-82
2023/08/24 02:40:06;;;;;;;3.67;2.33;;;17.00;99.90;;;;;;5072049;28;20226;-82
2023/08/24 02:42:35;;;;;;;4.22;2.72;;;17.00;99.90;;;;;;5057825;28;20223;-83
2023/08/24 02:45:02;;;;;;;5.90;3.00;;;16.90;99.90;;;;;;5062985;28;20745;-82
2023/08/24 02:47:29;;;;;;;7.00;2.97;;;16.90;99.90;;;;;;5056880;28;20224;-82
2023/08/24 02:49:56;;;;;;;5.90;2.75;;;16.90;99.90;;;;;;5065344;28;20723;-80
2023/08/24 02:52:24;;;;;;;5.80;3.25;;;16.80;99.90;;;;;;5062604;28;20314;-81
2023/08/24 02:54:51;;;;;;;5.90;3.15;;;16.70;99.90;;;;;;5066882;28;20219;-81
2023/08/24 02:57:18;;;;;;;5.38;2.75;;;16.70;99.90;;;;;;5061744;28;20922;-80
2023/08/24 02:59:45;;;;;;;3.95;2.65;;;16.70;99.90;;;;;;5067139;28;20277;-80
2023/08/24 03:02:13;;;;;;;5.35;3.20;;;16.60;99.90;;;;;;5067981;28;20216;-81
2023/08/24 03:04:40;;;;;;;4.97;3.40;;;16.70;99.90;;;;;;5068563;28;20302;-80
2023/08/24 03:07:07;;;;;;;3.88;2.80;;;16.60;99.90;;;;;;5063368;28;20237;-80
2023/08/24 03:09:37;;;;;;;2.85;2.63;;;16.60;99.90;;;;;;5063468;28;20344;-79
2023/08/24 03:12:04;;;;;;;4.10;2.90;;;16.60;99.90;;;;;;5057674;28;20302;-80
2023/08/24 03:14:31;;;;;;;3.05;2.72;;;16.50;99.90;;;;;;5059817;28;20215;-79
2023/08/24 03:16:57;;;;;;;3.97;2.70;;;16.50;99.90;;;;;;5063537;28;20265;-81
2023/08/24 03:19:24;;;;;;;5.32;2.97;;;16.40;99.90;;;;;;5060953;28;20326;-81
2023/08/24 03:21:51;;;;;;;5.15;2.90;;;16.40;99.90;;;;;;5068569;28;20273;-80
2023/08/24 03:24:18;;;;;;;4.40;3.00;;;16.40;99.90;;;;;;5062314;28;20318;-80
2023/08/24 03:26:46;;;;;;;7.18;3.20;;;16.30;99.90;;;;;;5060436;28;20224;-80
2023/08/24 03:29:12;;;;;;;5.85;3.42;;;16.20;99.90;;;;;;5064110;28;20812;-82
2023/08/24 03:31:39;;;;;;;4.97;3.05;;;16.20;99.90;;;;;;5062414;28;20299;-82
2023/08/24 03:34:06;;;;;;;5.40;3.70;;;16.20;99.90;;;;;;5055914;28;20259;-81
2023/08/24 03:36:33;;;;;;;4.50;3.57;;;16.20;99.90;;;;;;5059845;28;20697;-82
2023/08/24 03:39:00;;;;;;;5.70;3.27;;;16.10;99.90;;;;;;5051855;28;20239;-81
2023/08/24 03:41:30;;;;;;;5.97;3.57;;;16.10;99.90;;;;;;5061767;28;20215;-81
2023/08/24 03:44:00;;;;;;;4.37;3.30;;;16.00;99.90;;;;;;5063582;28;22260;-81
2023/08/24 03:46:27;;;;;;;5.55;3.22;;;16.00;99.90;;;;;;5061979;28;20231;-81
2023/08/24 03:48:54;;;;;;;4.60;3.60;;;15.90;99.90;;;;;;5069958;28;20714;-81
2023/08/24 03:51:21;;;;;;;4.73;3.30;;;15.80;99.90;;;;;;5067082;28;20360;-80
2023/08/24 03:53:48;;;;;;;4.45;2.70;;;15.80;99.90;;;;;;5062060;28;20331;-80
2023/08/24 03:56:15;;;;;;;3.97;3.13;;;15.80;99.90;;;;;;5058250;28;20670;-81
2023/08/24 03:58:42;;;;;;;3.83;2.93;;;15.70;99.90;;;;;;5061671;28;20269;-80
2023/08/24 04:01:12;;;;;;;4.40;2.60;;;15.70;99.90;;;;;;5065465;28;20219;-80
2023/08/24 04:03:39;;;;;;;4.17;3.10;;;15.60;99.90;;;;;;5061692;28;20976;-79
2023/08/24 04:06:07;;;;;;;7.97;3.60;;;15.60;99.90;;;;;;5070777;28;20970;-79
2023/08/24 04:08:34;;;;;;;6.87;4.10;;;15.60;99.90;;;;;;5058890;28;20226;-79
2023/08/24 04:11:02;;;;;;;5.57;3.70;;;15.50;99.90;;;;;;5062988;28;20280;-79
2023/08/24 04:13:28;;;;;;;4.20;3.13;;;15.50;99.90;;;;;;5065301;28;20242;-82
2023/08/24 04:15:55;;;;;;;6.03;3.77;;;15.50;99.90;;;;;;5062564;28;20219;-80
2023/08/24 04:18:23;;;;;;;6.22;3.63;;;15.50;99.90;;;;;;5065524;28;20242;-79
2023/08/24 04:20:52;;;;;;;5.87;3.07;;;15.40;99.90;;;;;;5065851;28;20219;-78
2023/08/24 04:23:25;;;;;;;4.10;3.40;;;15.40;99.90;;;;;;5066855;28;20227;-79
2023/08/24 04:25:51;;;;;;;4.23;3.23;;;15.40;99.90;;;;;;5063547;28;20258;-80
2023/08/24 04:28:18;;;;;;;4.20;3.30;;;15.30;99.90;;;;;;5059395;28;22253;-79
2023/08/24 04:30:51;;;;;;;5.63;3.03;;;15.30;99.90;;;;;;5059037;28;20225;-79
2023/08/24 04:33:17;;;;;;;5.20;3.73;;;15.30;99.90;;;;;;5060838;28;20214;-79
2023/08/24 04:35:47;;;;;;;4.60;3.40;;;15.30;99.90;;;;;;5061484;28;20253;-80
2023/08/24 04:38:14;;;;;;;4.83;3.50;;;15.30;99.90;;;;;;5060244;28;20235;-79
2023/08/24 04:40:51;;;;;;;4.27;3.30;;;15.30;99.90;;;;;;5063692;28;20233;-82
2023/08/24 04:43:18;;;;;;;5.13;3.33;;;15.30;99.90;;;;;;5058429;28;20221;-82
2023/08/24 04:45:46;;;;;;;4.47;3.50;;;15.30;99.90;;;;;;5059428;28;20963;-82
2023/08/24 04:48:13;;;;;;;7.97;3.60;;;15.30;99.90;;;;;;5056306;28;20220;-82
2023/08/24 04:50:40;;;;;;;10.13;4.40;;;15.30;99.90;;;;;;5058765;28;20299;-82
2023/08/24 04:53:08;;;;;;;5.87;4.00;;;15.30;99.90;;;;;;5059779;28;20257;-82
2023/08/24 04:55:35;;;;;;;7.37;5.23;;;15.30;99.90;;;;;;5060597;28;20234;-82
2023/08/24 04:58:02;;;;;;;6.30;4.33;;;15.30;99.90;;;;;;5063184;28;20231;-82
2023/08/24 05:00:28;;;;;;;6.50;4.50;;;15.30;99.90;;;;;;5061265;28;20226;-82
2023/08/24 05:02:55;;;;;;;9.40;5.17;;;15.30;99.90;;;;;;5060697;28;20219;-82
2023/08/24 05:05:22;;;;;;;7.43;4.93;;;15.30;99.90;;;;;;5062316;28;20235;-83
2023/08/24 05:07:48;;;;;;;10.20;5.60;;;15.30;99.90;;;;;;5060701;28;20294;-82
2023/08/24 05:10:16;;;;;;;5.67;4.30;;;15.30;99.90;;;;;;5060535;28;20224;-81
2023/08/24 05:12:43;;;;;;;8.33;4.47;;;15.30;99.90;;;;;;5060720;28;20710;-81
2023/08/24 05:15:10;;;;;;;5.33;4.30;;;15.30;99.90;;;;;;5056616;28;20219;-82
2023/08/24 05:17:37;;;;;;;7.63;4.57;;;15.30;99.90;;;;;;5060056;28;20261;-82
2023/08/24 05:20:05;;;;;;;7.70;4.73;;;15.40;99.90;;;;;;5054965;28;20223;-82
2023/08/24 05:22:32;;;;;;;6.53;4.37;;;15.40;99.90;;;;;;5055332;28;20219;-82
2023/08/24 05:24:58;;;;;;;6.53;4.30;;;15.40;99.90;;;;;;5057308;28;20220;-82
2023/08/24 05:27:27;;;;;;;6.13;4.40;;;15.40;99.90;;;;;;5066267;28;20291;-82
2023/08/24 05:29:54;;;;;;;7.30;4.27;;;15.40;99.90;;;;;;5054073;28;20219;-82
2023/08/24 05:32:21;;;;;;;6.67;4.23;;;15.40;99.90;;;;;;5065979;28;20326;-82
2023/08/24 05:34:48;;;;;;;6.27;4.87;;;15.40;99.90;;;;;;5070058;28;20230;-82
2023/08/24 05:37:15;;;;;;;7.73;6.73;;;15.40;99.90;;;;;;5063682;28;20277;-82
2023/08/24 05:39:41;;;;;;;10.07;6.53;;;15.40;99.90;;;;;;5054449;28;20231;-82
2023/08/24 05:42:09;;;;;;;9.90;6.60;;;15.40;99.90;;;;;;5059659;28;20238;-82
2023/08/24 05:44:38;;;;;;;10.17;6.90;;;15.40;99.90;;;;;;5059666;28;20234;-82
2023/08/24 05:47:05;;;;;;;12.33;7.37;;;15.40;99.90;;;;;;5067457;28;20313;-82
2023/08/24 05:49:32;;;;;;;8.60;6.53;;;15.50;99.90;;;;;;5068712;28;20276;-82
2023/08/24 05:51:58;;;;;;;9.63;7.03;;;15.50;99.90;;;;;;5060149;28;20226;-82
2023/08/24 05:54:25;;;;;;;12.83;7.63;;;15.60;99.90;;;;;;5058235;28;20223;-82
2023/08/24 05:56:52;;;;;;;11.87;6.83;;;15.60;99.90;;;;;;5060391;28;20224;-82
2023/08/24 05:59:19;;;;;;;6.63;5.70;;;15.60;99.90;;;;;;5064911;28;20243;-82
2023/08/24 06:01:47;;;;;;;8.03;5.60;;;15.70;99.90;;;;;;5051517;28;20621;-82
2023/08/24 06:04:14;;;;;;;9.90;5.53;;;15.80;99.90;;;;;;5066364;28;20717;-84
2023/08/24 06:06:40;;;;;;;8.10;5.60;;;15.80;99.90;;;;;;5073808;28;21118;-83
2023/08/24 06:09:07;;;;;;;10.43;5.60;;;15.80;99.90;;;;;;5068367;28;20234;-83
2023/08/24 06:11:34;;;;;;;8.73;6.10;;;15.90;99.90;;;;;;5063725;28;20234;-83
2023/08/24 06:14:01;;;;;;;9.30;6.30;;;15.90;99.90;;;;;;5067051;28;20344;-83
2023/08/24 06:16:28;;;;;;;8.87;6.30;;;15.90;99.90;;;;;;5063164;28;20223;-83
2023/08/24 06:18:56;;;;;;;6.80;6.10;;;16.00;99.90;;;;;;5071323;28;20694;-83
2023/08/24 06:21:23;;;;;;;6.10;4.30;;;16.10;99.90;;;;;;5075920;28;20226;-83
2023/08/24 06:23:49;;;;;;;6.93;4.17;;;16.10;99.90;;;;;;5067777;28;20220;-83
2023/08/24 06:26:16;;;;;;;5.30;3.37;;;16.20;99.90;;;;;;5068687;28;20770;-84
2023/08/24 06:28:43;;;;;;;5.10;2.20;;;16.20;99.90;;;;;;5073662;28;20665;-84
2023/08/24 06:31:09;;;;;;;4.17;2.80;;;16.20;99.90;;;;;;5068654;28;20299;-83
2023/08/24 06:33:37;;;;;;;3.67;2.88;;;16.30;99.90;;;;;;5068303;28;20234;-83
2023/08/24 06:36:06;;;;;;;4.97;3.37;;;16.40;99.90;;;;;;5079610;28;20231;-83
2023/08/24 06:38:33;;;;;;;6.77;2.80;;;16.40;99.90;;;;;;5074528;28;20306;-83
2023/08/24 06:41:00;;;;;;;7.50;2.70;;;16.50;99.90;;;;;;5071044;28;20221;-83
2023/08/24 06:43:27;;;;;;;5.75;2.80;;;16.50;99.90;;;;;;5070463;28;20231;-83
2023/08/24 06:45:56;;;;;;;5.77;2.27;;;16.60;99.90;;;;;;5069876;28;20234;-83
2023/08/24 06:48:22;;;;;;;3.30;2.23;;;16.70;99.90;;;;;;5072512;28;20314;-83
2023/08/24 06:50:49;;;;;;;4.78;2.90;;;16.80;99.90;;;;;;5068976;28;20219;-83
2023/08/24 06:53:17;;;;;;;4.77;2.70;;;16.80;99.90;;;;;;5057583;28;20246;-84
2023/08/24 06:55:44;;;;;;;5.88;2.40;;;16.90;99.90;;;;;;5057640;28;20314;-84
2023/08/24 06:58:10;;;;;;;2.80;2.13;;;16.90;99.90;;;;;;5066572;28;20705;-84
2023/08/24 07:00:37;;;;;;;2.95;2.33;;;17.00;99.90;;;;;;5058496;28;20799;-83
2023/08/24 07:03:04;;;;;;;4.50;2.05;;;17.00;99.90;;;;;;5062615;28;20251;-84
2023/08/24 07:05:33;;;;;;;4.27;1.80;;;17.10;99.90;;;;;;5068294;28;20243;-82
2023/08/24 07:08:02;;;;;;;3.80;1.80;;;17.10;99.90;;;;;;5062324;28;20262;-82
2023/08/24 07:10:30;;;;;;;4.38;2.75;;;17.10;99.90;;;;;;5069311;28;20639;-84
2023/08/24 07:12:57;;;;;;;6.00;2.78;;;17.20;99.90;;;;;;5068427;28;20789;-82
2023/08/24 07:15:24;;;;;;;3.72;1.60;;;17.20;99.90;;;;;;5066624;28;20288;-83
2023/08/24 07:17:50;;;;;;;4.75;2.33;;;17.30;99.90;;;;;;5067290;28;20224;-82
2023/08/24 07:20:17;;;;;;;4.27;2.10;;;17.30;99.90;;;;;;5062116;28;20224;-82
2023/08/24 07:22:44;;;;;;;4.70;2.35;;;17.30;99.90;;;;;;5065670;28;20277;-85
2023/08/24 07:25:12;;;;;;;2.88;2.10;;;17.40;99.90;;;;;;5065974;28;20302;-83
2023/08/24 07:27:40;;;;;;;2.70;1.65;;;17.50;99.90;;;;;;5059489;28;20228;-83
2023/08/24 07:30:09;;;;;;;3.03;1.75;;;17.50;99.90;;;;;;5065098;28;20227;-84
2023/08/24 07:32:36;;;;;;;3.67;1.63;;;17.50;99.90;;;;;;5067078;28;20280;-84
2023/08/24 07:35:02;;;;;;;3.05;1.65;;;17.60;99.90;;;;;;5062257;28;20690;-82
2023/08/24 07:37:29;;;;;;;3.45;1.55;;;17.60;99.90;;;;;;5067333;28;20310;-81
2023/08/24 07:39:56;;;;;;;3.00;1.60;;;17.70;99.90;;;;;;5066783;28;20882;-81
2023/08/24 07:42:23;;;;;;;2.85;1.15;;;17.80;99.90;;;;;;5059727;28;20229;-82
2023/08/24 07:44:51;;;;;;;2.75;1.60;;;18.10;99.90;;;;;;5060511;28;20231;-82
2023/08/24 07:47:18;;;;;;;3.53;1.65;;;18.60;99.90;;;;;;5060812;28;20223;-81
2023/08/24 07:49:45;;;;;;;2.97;1.42;;;19.20;99.90;;;;;;5060878;28;20222;-83
2023/08/24 07:52:12;;;;;;;2.95;1.30;;;19.90;99.90;;;;;;5062627;28;20215;-83
2023/08/24 07:54:38;;;;;;;2.30;1.45;;;20.70;99.90;;;;;;5065525;28;20227;-82
2023/08/24 07:57:05;;;;;;;5.28;1.60;;;21.60;99.90;;;;;;5069006;28;20615;-83
2023/08/24 07:59:32;;;;;;;2.58;1.02;;;22.50;99.90;;;;;;5065226;28;20763;-82
2023/08/24 08:02:00;;;;;;;4.28;1.10;;;23.40;99.90;;;;;;5063971;28;20214;-83
2023/08/24 08:04:27;;;;;;;2.90;1.30;;;24.30;99.90;;;;;;5065124;28;20232;-82
2023/08/24 08:06:55;;;;;;;2.75;1.27;;;25.00;99.90;;;;;;5072605;28;20227;-84
2023/08/24 08:09:22;;;;;;;4.32;1.38;;;25.70;99.90;;;;;;5062909;28;20228;-83
2023/08/24 08:11:49;;;;;;;3.15;1.00;;;26.40;99.90;;;;;;5064088;28;20226;-83
2023/08/24 08:14:15;;;;;;;1.80;0.90;;;27.10;99.90;;;;;;5064024;28;20283;-83
2023/08/24 08:16:42;;;;;;;2.95;1.10;;;27.60;99.80;;;;;;5064423;28;20693;-83
2023/08/24 08:19:10;;;;;;;2.13;0.70;;;28.20;98.70;;;;;;5061353;28;20223;-84
2023/08/24 08:21:37;;;;;;;2.40;1.20;;;28.70;97.90;;;;;;5067123;28;20230;-83
2023/08/24 08:24:04;;;;;;;1.30;0.95;;;29.10;96.40;;;;;;5064113;28;20784;-84
2023/08/24 08:26:30;;;;;;;2.35;0.90;;;29.40;94.60;;;;;;5062122;28;20228;-84
2023/08/24 08:28:57;;;;;;;1.77;0.98;;;29.60;93.20;;;;;;5073309;28;20305;-83
2023/08/24 08:31:24;;;;;;;3.30;0.80;;;29.80;93.60;;;;;;5066847;28;21332;-84
2023/08/24 08:33:51;;;;;;;2.03;0.70;;;29.90;93.00;;;;;;5066275;28;20211;-84
2023/08/24 08:36:19;;;;;;;2.20;0.73;;;30.10;93.10;;;;;;5069065;28;20269;-83
2023/08/24 08:38:45;;;;;;;3.70;0.90;;;30.30;92.00;;;;;;5062795;28;20227;-84
2023/08/24 08:41:13;;;;;;;2.08;0.95;;;30.50;92.30;;;;;;5061935;28;20613;-84
2023/08/24 08:43:40;;;;;;;2.20;1.10;;;30.80;91.50;;;;;;5074668;28;20238;-84
2023/08/24 08:46:07;;;;;;;2.20;1.27;;;31.10;90.70;;;;;;5060766;28;20686;-84
2023/08/24 08:48:35;;;;;;;3.33;1.20;;;31.40;89.70;;;;;;5065077;28;20226;-86
2023/08/24 08:51:02;;;;;;;1.38;1.08;;;31.50;87.90;;;;;;5064588;28;20249;-83
2023/08/24 08:53:30;;;;;;;5.15;1.63;;;31.70;88.90;;;;;;5061697;28;20223;-83
2023/08/24 08:56:03;;;;;;;2.35;1.00;;;31.80;87.40;;;;;;5060606;28;20245;-83
2023/08/24 08:58:32;;;;;;;3.00;1.23;;;31.80;82.80;;;;;;5057493;28;20230;-85
2023/08/24 09:00:59;;;;;;;2.72;1.35;;;31.90;82.80;;;;;;5063707;28;20278;-84
2023/08/24 09:03:29;;;;;;;3.45;1.20;;;32.00;82.30;;;;;;5059843;28;20643;-83
2023/08/24 09:05:57;;;;;;;2.67;0.98;;;32.10;83.10;;;;;;5060932;28;20238;-85
2023/08/24 09:08:24;;;;;;;1.33;0.93;;;32.20;79.60;;;;;;5058278;28;20265;-85
2023/08/24 09:10:52;;;;;;;2.25;1.10;;;32.30;81.00;;;;;;5066169;28;20223;-83
2023/08/24 09:13:19;;;;;;;1.70;1.00;;;32.50;79.80;;;;;;5056510;28;20338;-82
2023/08/24 09:15:46;;;;;;;3.53;1.50;;;32.60;80.60;;;;;;5059857;28;20223;-83
2023/08/24 09:18:12;;;;;;;4.03;1.50;;;32.70;79.30;;;;;;5060428;28;20220;-82
2023/08/24 09:20:39;;;;;;;3.17;1.10;;;32.70;75.90;;;;;;5064509;28;20232;-82
2023/08/24 09:23:19;;;;;;;4.80;1.48;;;32.70;74.60;;;;;;5068944;28;20305;-82
2023/08/24 09:25:47;;;;;;;3.25;1.10;;;32.60;73.10;;;;;;5062378;28;20223;-81
2023/08/24 09:28:15;;;;;;;2.03;1.23;;;32.60;75.40;;;;;;5064363;28;20220;-81
2023/08/24 09:30:45;;;;;;;4.18;1.50;;;32.40;74.70;;;;;;5072291;28;20272;-81
2023/08/24 09:33:12;;;;;;;2.08;1.50;;;32.50;75.00;;;;;;5061100;28;20254;-82
2023/08/24 09:35:39;;;;;;;2.85;1.25;;;32.70;76.10;;;;;;5064875;28;20307;-82
2023/08/24 09:38:19;;;;;;;3.00;1.60;;;32.90;74.70;;;;;;5066035;28;20564;-82
2023/08/24 09:40:48;;;;;;;1.80;1.20;;;33.10;73.30;;;;;;5073600;28;20223;-81
2023/08/24 09:43:16;;;;;;;5.40;1.42;;;33.40;74.70;;;;;;5068920;28;20227;-81
2023/08/24 09:45:50;;;;;;;3.88;1.65;;;33.60;71.30;;;;;;5065427;28;20313;-82
2023/08/24 09:48:17;;;;;;;2.90;1.75;;;33.60;68.50;;;;;;5066260;28;20227;-82
2023/08/24 09:50:46;;;;;;;4.28;1.30;;;33.60;70.50;;;;;;5079662;28;20232;-81
2023/08/24 09:53:17;;;;;;;1.92;1.13;;;33.40;70.40;;;;;;5062863;28;20227;-81
2023/08/24 09:55:47;;;;;;;3.42;1.60;;;33.30;69.30;;;;;;5065105;28;20239;-81
2023/08/24 09:58:16;;;;;;;4.45;1.77;;;33.10;71.00;;;;;;5057692;28;20276;-81
2023/08/24 10:00:46;;;;;;;5.25;1.98;;;33.10;71.00;;;;;;5063561;28;20710;-81
2023/08/24 10:03:16;;;;;;;2.92;1.50;;;33.10;70.40;;;;;;5067390;28;20591;-81
2023/08/24 10:05:43;;;;;;;2.65;1.52;;;33.30;69.30;;;;;;5065437;28;20247;-80
2023/08/24 10:08:11;;;;;;;2.47;1.50;;;33.40;69.90;;;;;;5069849;28;20314;-80
2023/08/24 10:10:39;;;;;;;3.80;1.55;;;33.70;70.40;;;;;;5069811;28;20228;-81
2023/08/24 10:13:12;;;;;;;2.63;1.40;;;34.00;68.80;;;;;;5063860;28;20245;-81
2023/08/24 10:15:46;;;;;;;3.78;1.83;;;34.10;66.70;;;;;;5065633;28;20268;-82
2023/08/24 10:18:13;;;;;;;3.67;1.73;;;34.10;64.60;;;;;;5069913;28;20287;-81
2023/08/24 10:20:41;;;;;;;3.10;2.03;;;34.10;66.80;;;;;;5076700;28;20226;-81
2023/08/24 10:23:09;;;;;;;4.72;1.95;;;34.10;66.70;;;;;;5065438;28;20224;-81
2023/08/24 10:25:36;;;;;;;2.67;2.00;;;34.00;66.20;;;;;;5069494;28;20736;-81
2023/08/24 10:28:05;;;;;;;3.75;1.90;;;34.00;65.90;;;;;;5071343;28;20207;-81
2023/08/24 10:30:32;;;;;;;5.20;1.80;;;34.10;66.50;;;;;;5070773;28;20641;-81
2023/08/24 10:33:01;;;;;;;4.10;2.03;;;34.20;67.10;;;;;;5065999;28;20219;-82
2023/08/24 10:35:28;;;;;;;2.58;1.40;;;34.30;65.70;;;;;;5063110;28;20247;-81
2023/08/24 10:37:58;;;;;;;3.30;1.73;;;34.40;65.90;;;;;;5064965;28;20318;-82
2023/08/24 10:40:36;;;;;;;3.78;1.92;;;34.60;65.80;;;;;;5071140;28;20563;-81
2023/08/24 10:43:05;;;;;;;4.40;1.90;;;34.70;63.50;;;;;;5062689;28;20220;-81
2023/08/24 10:45:57;;;;;;;4.15;2.10;;;34.90;63.40;;;;;;5064257;28;20219;-82
2023/08/24 10:48:25;;;;;;;6.00;1.73;;;34.80;62.60;;;;;;5059674;28;20226;-81
2023/08/24 10:51:19;;;;;;;2.95;2.03;;;34.90;63.00;;;;;;5067587;28;20218;-81
2023/08/24 10:53:47;;;;;;;2.72;1.90;;;34.80;61.10;;;;;;5067581;28;20234;-81
2023/08/24 10:56:14;;;;;;;3.45;1.92;;;34.70;61.00;;;;;;5059782;28;20226;-80
2023/08/24 10:58:41;;;;;;;2.75;1.90;;;34.60;61.50;;;;;;5060136;28;20732;-82
2023/08/24 11:01:14;;;;;;;3.33;1.77;;;34.50;62.10;;;;;;5062877;28;20821;-81
2023/08/24 11:03:46;;;;;;;3.15;2.03;;;34.50;61.80;;;;;;5066077;28;20254;-82
2023/08/24 11:06:20;;;;;;;2.90;1.85;;;34.50;62.00;;;;;;5073053;28;20508;-81
2023/08/24 11:08:47;;;;;;;4.55;2.28;;;34.50;61.70;;;;;;5067836;28;20231;-82
2023/08/24 11:11:21;;;;;;;4.68;2.20;;;34.60;62.30;;;;;;5071280;28;20301;-81
2023/08/24 11:14:17;;;;;;;4.00;1.85;;;34.70;60.40;;;;;;5062600;28;20246;-81
2023/08/24 11:16:45;;;;;;;5.82;2.80;;;34.70;57.60;;;;;;5071078;28;20223;-81
2023/08/24 11:19:14;;;;;;;7.05;2.55;;;34.60;57.70;;;;;;5066784;28;20251;-82
2023/08/24 11:21:42;;;;;;;3.05;2.45;;;34.30;58.20;;;;;;5072855;28;20303;-81
2023/08/24 11:24:11;;;;;;;4.18;1.98;;;34.10;57.90;;;;;;5059919;28;20231;-81
2023/08/24 11:26:42;;;;;;;3.30;2.13;;;33.80;58.40;;;;;;5047411;28;20235;-81
2023/08/24 11:29:09;;;;;;;5.38;2.20;;;33.70;58.20;;;;;;5063180;28;20219;-81
2023/08/24 11:31:36;;;;;;;4.20;2.17;;;33.60;58.00;;;;;;5070019;28;20220;-81
2023/08/24 11:34:04;;;;;;;4.85;1.85;;;33.50;57.90;;;;;;5065760;28;20231;-81
2023/08/24 11:36:32;;;;;;;3.90;1.95;;;33.50;57.80;;;;;;5074017;28;20232;-81
2023/08/24 11:39:00;;;;;;;4.07;2.00;;;33.40;57.90;;;;;;5064852;28;20269;-81
2023/08/24 11:41:27;;;;;;;2.47;1.83;;;33.40;58.10;;;;;;5068528;28;20224;-82
2023/08/24 11:44:01;;;;;;;6.05;2.17;;;33.30;57.70;;;;;;5068649;28;20216;-81
2023/08/24 11:46:30;;;;;;;4.53;1.85;;;33.10;57.50;;;;;;5070728;28;20322;-82
2023/08/24 11:48:58;;;;;;;2.78;1.95;;;33.10;58.50;;;;;;5071994;28;20234;-81
2023/08/24 11:51:25;;;;;;;4.72;2.00;;;33.10;58.80;;;;;;5067046;28;20315;-81
2023/08/24 11:53:53;;;;;;;3.40;1.70;;;33.00;58.70;;;;;;5060972;28;20235;-81
2023/08/24 11:56:20;;;;;;;3.20;1.80;;;33.00;58.60;;;;;;5070698;28;20301;-81
2023/08/24 11:58:50;;;;;;;2.78;1.88;;;33.00;55.40;;;;;;5064496;28;20216;-81
2023/08/24 12:01:17;;;;;;;3.97;1.75;;;32.90;57.30;;;;;;5067610;28;20254;-81
2023/08/24 12:03:43;;;;;;;4.47;2.30;;;32.80;58.60;;;;;;5061649;28;20588;-81
2023/08/24 12:06:12;;;;;;;3.22;1.77;;;32.60;58.10;;;;;;5064183;28;20258;-81
2023/08/24 12:08:39;;;;;;;3.83;2.20;;;32.40;58.50;;;;;;5063297;28;20212;-81
2023/08/24 12:11:13;;;;;;;2.80;1.90;;;32.30;58.70;;;;;;5064716;28;20314;-79
2023/08/24 12:13:45;;;;;;;3.38;1.65;;;32.20;58.90;;;;;;5068202;28;20216;-80
2023/08/24 12:16:11;;;;;;;2.92;2.00;;;32.20;60.10;;;;;;5065744;28;20246;-81
2023/08/24 12:18:48;;;;;;;4.65;2.00;;;32.20;59.20;;;;;;5060689;28;20236;-81
2023/08/24 12:21:14;;;;;;;3.83;2.00;;;32.30;60.50;;;;;;5061644;28;20227;-79
2023/08/24 12:23:41;;;;;;;2.55;1.77;;;32.50;61.20;;;;;;5066042;28;20715;-81
2023/08/24 12:26:08;;;;;;;4.47;2.30;;;32.60;60.70;;;;;;5059678;28;20234;-79
2023/08/24 12:28:36;;;;;;;3.45;2.20;;;32.70;60.00;;;;;;5055794;28;20223;-79
2023/08/24 12:31:03;;;;;;;4.15;1.90;;;32.60;59.70;;;;;;5065948;28;20216;-80
2023/08/24 12:33:31;;;;;;;2.47;1.73;;;32.50;60.60;;;;;;5060977;28;20360;-80
2023/08/24 12:35:59;;;;;;;4.30;2.10;;;32.50;60.80;;;;;;5066848;28;20589;-81
2023/08/24 12:38:26;;;;;;;5.30;2.22;;;32.40;60.40;;;;;;5063182;28;20226;-81
2023/08/24 12:40:54;;;;;;;3.72;2.10;;;32.40;60.30;;;;;;5055487;28;20686;-81
2023/08/24 12:43:20;;;;;;;3.20;1.60;;;32.50;60.80;;;;;;5052913;28;20805;-79
2023/08/24 12:45:49;;;;;;;2.97;1.70;;;32.50;60.20;;;;;;5066306;28;20912;-80
2023/08/24 12:48:15;;;;;;;5.97;1.52;;;32.50;60.40;;;;;;5047200;28;20463;-81
2023/08/24 12:50:42;;;;;;;2.35;1.52;;;32.50;60.20;;;;;;5059730;28;20756;-81